sensor_id;sensor_type;location;lat;lon;timestamp;temperature;humidity
56428;DHT22;42331;53.578;9.760;2023-08-06T00:01:01;14.90;99.90
56428;DHT22;42331;53.578;9.760;2023-08-06T00:03:32;14.90;99.90
56428;DHT22;42331;53.578;9.760;2023-08-06T00:06:05;15.00;99.90
56428;DHT22;42331;53.578;9.760;2023-08-06T00:08:36;14.90;99.90
56428;DHT22;42331;53.578;9.760;2023-08-06T00:11:07;14.90;99.90
56428;DHT22;42331;53.578;9.760;2023-08-06T00:13:37;14.90;99.90
56428;DHT22;42331;53.578;9.760;2023-08-06T00:16:12;14.90;99.90
56428;DHT22;42331;53.578;9.760;2023-08-06T00:18:43;14.90;99.90
56428;DHT22;42331;53.578;9.760;2023-08-06T00:21:14;14.90;99.90
56428;DHT22;42331;53.578;9.760;2023-08-06T00:23:45;14.90;99.90
56428;DHT22;42331;53.578;9.760;2023-08-06T00:26:15;14.90;99.90
56428;DHT22;42331;53.578;9.760;2023-08-06T00:28:46;14.90;99.90
56428;DHT22;42331;53.578;9.760;2023-08-06T00:31:23;14.90;99.90
56428;DHT22;42331;53.578;9.760;2023-08-06T00:33:54;14.80;99.90
56428;DHT22;42331;53.578;9.760;2023-08-06T00:36:25;14.90;99.90
56428;DHT22;42331;53.578;9.760;2023-08-06T00:38:55;14.80;99.90
56428;DHT22;42331;53.578;9.760;2023-08-06T00:41:26;14.80;99.90
56428;DHT22;42331;53.578;9.760;2023-08-06T00:43:57;14.80;99.90
56428;DHT22;42331;53.578;9.760;2023-08-06T00:46:27;14.80;99.90
56428;DHT22;42331;53.578;9.760;2023-08-06T00:48:58;14.80;99.90
56428;DHT22;42331;53.578;9.760;2023-08-06T00:51:30;14.80;99.90
56428;DHT22;42331;53.578;9.760;2023-08-06T00:54:01;14.80;99.90
56428;DHT22;42331;53.578;9.760;2023-08-06T00:56:34;14.80;99.90
56428;DHT22;42331;53.578;9.760;2023-08-06T00:59:09;14.80;99.90
56428;DHT22;42331;53.578;9.760;2023-08-06T01:01:41;14.80;99.90
56428;DHT22;42331;53.578;9.760;2023-08-06T01:04:12;14.80;99.90
56428;DHT22;42331;53.578;9.760;2023-08-06T01:06:48;14.80;99.90
56428;DHT22;42331;53.578;9.760;2023-08-06T01:09:42;14.80;99.90
56428;DHT22;42331;53.578;9.760;2023-08-06T01:12:22;14.70;99.90
56428;DHT22;42331;53.578;9.760;2023-08-06T01:15:11;14.70;99.90
56428;DHT22;42331;53.578;9.760;2023-08-06T01:17:44;14.70;99.90
56428;DHT22;42331;53.578;9.760;2023-08-06T01:20:15;14.80;99.90
56428;DHT22;42331;53.578;9.760;2023-08-06T01:22:46;14.80;99.90
56428;DHT22;42331;53.578;9.760;2023-08-06T01:25:17;14.80;99.90
56428;DHT22;42331;53.578;9.760;2023-08-06T01:27:52;14.80;99.90
56428;DHT22;42331;53.578;9.760;2023-08-06T01:30:28;14.90;99.90
56428;DHT22;42331;53.578;9.760;2023-08-06T01:33:04;14.80;99.90
56428;DHT22;42331;53.578;9.760;2023-08-06T01:35:35;14.80;99.90
56428;DHT22;42331;53.578;9.760;2023-08-06T01:38:07;14.90;99.90
56428;DHT22;42331;53.578;9.760;2023-08-06T01:40:38;14.90;99.90
56428;DHT22;42331;53.578;9.760;2023-08-06T01:43:08;14.90;99.90
56428;DHT22;42331;53.578;9.760;2023-08-06T01:45:39;14.90;99.90
56428;DHT22;42331;53.578;9.760;2023-08-06T01:48:10;14.90;99.90
56428;DHT22;42331;53.578;9.760;2023-08-06T01:50:41;14.90;99.90
56428;DHT22;42331;53.578;9.760;2023-08-06T01:53:11;14.90;99.90
56428;DHT22;42331;53.578;9.760;2023-08-06T01:55:42;14.90;99.90
56428;DHT22;42331;53.578;9.760;2023-08-06T01:58:17;14.90;99.90
56428;DHT22;42331;53.578;9.760;2023-08-06T02:00:48;14.90;99.90
56428;DHT22;42331;53.578;9.760;2023-08-06T02:03:19;14.90;99.90
56428;DHT22;42331;53.578;9.760;2023-08-06T02:05:49;14.90;99.90
56428;DHT22;42331;53.578;9.760;2023-08-06T02:08:20;15.00;99.90
56428;DHT22;42331;53.578;9.760;2023-08-06T02:10:51;15.00;99.90
56428;DHT22;42331;53.578;9.760;2023-08-06T02:13:21;15.00;99.90
56428;DHT22;42331;53.578;9.760;2023-08-06T02:15:52;14.90;99.90
56428;DHT22;42331;53.578;9.760;2023-08-06T02:18:23;14.90;99.90
56428;DHT22;42331;53.578;9.760;2023-08-06T02:20:58;14.90;99.90
56428;DHT22;42331;53.578;9.760;2023-08-06T02:23:29;14.90;99.90
56428;DHT22;42331;53.578;9.760;2023-08-06T02:26:01;15.00;99.90
56428;DHT22;42331;53.578;9.760;2023-08-06T02:28:32;15.00;99.90
56428;DHT22;42331;53.578;9.760;2023-08-06T02:31:03;15.00;99.90
56428;DHT22;42331;53.578;9.760;2023-08-06T02:33:33;14.90;99.90
56428;DHT22;42331;53.578;9.760;2023-08-06T02:36:04;14.90;99.90
56428;DHT22;42331;53.578;9.760;2023-08-06T02:38:35;14.90;99.90
56428;DHT22;42331;53.578;9.760;2023-08-06T02:41:06;14.90;99.90
56428;DHT22;42331;53.578;9.760;2023-08-06T02:43:37;14.90;99.90
56428;DHT22;42331;53.578;9.760;2023-08-06T02:46:07;14.90;99.90
56428;DHT22;42331;53.578;9.760;2023-08-06T02:48:38;14.90;99.90
56428;DHT22;42331;53.578;9.760;2023-08-06T02:53:53;14.90;99.90
56428;DHT22;42331;53.578;9.760;2023-08-06T02:56:23;14.90;99.90
56428;DHT22;42331;53.578;9.760;2023-08-06T02:58:54;14.90;99.90
56428;DHT22;42331;53.578;9.760;2023-08-06T03:01:25;14.90;99.90
56428;DHT22;42331;53.578;9.760;2023-08-06T03:03:57;14.90;99.90
56428;DHT22;42331;53.578;9.760;2023-08-06T03:06:27;14.90;99.90
56428;DHT22;42331;53.578;9.760;2023-08-06T03:08:58;14.90;99.90
56428;DHT22;42331;53.578;9.760;2023-08-06T03:11:29;14.90;99.90
56428;DHT22;42331;53.578;9.760;2023-08-06T03:13:59;14.90;99.90
56428;DHT22;42331;53.578;9.760;2023-08-06T03:16:30;14.90;99.90
56428;DHT22;42331;53.578;9.760;2023-08-06T03:19:01;14.90;99.90
56428;DHT22;42331;53.578;9.760;2023-08-06T03:21:32;14.90;99.90
56428;DHT22;42331;53.578;9.760;2023-08-06T03:24:02;14.90;99.90
56428;DHT22;42331;53.578;9.760;2023-08-06T03:26:33;14.90;99.90
56428;DHT22;42331;53.578;9.760;2023-08-06T03:29:04;14.90;99.90
56428;DHT22;42331;53.578;9.760;2023-08-06T03:31:34;14.90;99.90
56428;DHT22;42331;53.578;9.760;2023-08-06T03:34:05;14.90;99.90
56428;DHT22;42331;53.578;9.760;2023-08-06T03:36:37;14.90;99.90
56428;DHT22;42331;53.578;9.760;2023-08-06T03:39:07;14.90;99.90
56428;DHT22;42331;53.578;9.760;2023-08-06T03:41:38;14.90;99.90
56428;DHT22;42331;53.578;9.760;2023-08-06T03:44:08;14.90;99.90
56428;DHT22;42331;53.578;9.760;2023-08-06T03:46:39;14.90;99.90
56428;DHT22;42331;53.578;9.760;2023-08-06T03:49:10;14.90;99.90
56428;DHT22;42331;53.578;9.760;2023-08-06T03:51:40;15.00;99.90
56428;DHT22;42331;53.578;9.760;2023-08-06T03:54:11;15.00;99.90
56428;DHT22;42331;53.578;9.760;2023-08-06T03:56:42;15.00;99.90
56428;DHT22;42331;53.578;9.760;2023-08-06T03:59:13;14.90;99.90
56428;DHT22;42331;53.578;9.760;2023-08-06T04:01:43;14.90;99.90
56428;DHT22;42331;53.578;9.760;2023-08-06T04:04:14;14.90;99.90
56428;DHT22;42331;53.578;9.760;2023-08-06T04:06:45;14.90;99.90
56428;DHT22;42331;53.578;9.760;2023-08-06T04:09:15;14.90;99.90
56428;DHT22;42331;53.578;9.760;2023-08-06T04:11:46;14.90;99.90
56428;DHT22;42331;53.578;9.760;2023-08-06T04:14:17;14.90;99.90
56428;DHT22;42331;53.578;9.760;2023-08-06T04:16:48;14.90;99.90
56428;DHT22;42331;53.578;9.760;2023-08-06T04:19:18;14.80;99.90
56428;DHT22;42331;53.578;9.760;2023-08-06T04:21:49;14.80;99.90
56428;DHT22;42331;53.578;9.760;2023-08-06T04:24:20;14.90;99.90
56428;DHT22;42331;53.578;9.760;2023-08-06T04:26:50;14.90;99.90
56428;DHT22;42331;53.578;9.760;2023-08-06T04:29:21;14.90;99.90
56428;DHT22;42331;53.578;9.760;2023-08-06T04:31:52;14.90;99.90
56428;DHT22;42331;53.578;9.760;2023-08-06T04:34:23;14.90;99.90
56428;DHT22;42331;53.578;9.760;2023-08-06T04:36:53;14.90;99.90
56428;DHT22;42331;53.578;9.760;2023-08-06T04:39:24;14.90;99.90
56428;DHT22;42331;53.578;9.760;2023-08-06T04:41:58;14.90;99.90
56428;DHT22;42331;53.578;9.760;2023-08-06T04:44:29;14.90;99.90
56428;DHT22;42331;53.578;9.760;2023-08-06T04:46:59;14.90;99.90
56428;DHT22;42331;53.578;9.760;2023-08-06T04:49:30;14.90;99.90
56428;DHT22;42331;53.578;9.760;2023-08-06T04:52:01;14.90;99.90
56428;DHT22;42331;53.578;9.760;2023-08-06T04:54:31;14.90;99.90
56428;DHT22;42331;53.578;9.760;2023-08-06T04:57:02;14.90;99.90
56428;DHT22;42331;53.578;9.760;2023-08-06T04:59:33;15.00;99.90
56428;DHT22;42331;53.578;9.760;2023-08-06T05:02:04;15.00;99.90
56428;DHT22;42331;53.578;9.760;2023-08-06T05:04:34;15.10;99.90
56428;DHT22;42331;53.578;9.760;2023-08-06T05:07:05;15.10;99.90
56428;DHT22;42331;53.578;9.760;2023-08-06T05:09:36;15.10;99.90
56428;DHT22;42331;53.578;9.760;2023-08-06T05:12:07;15.10;99.90
56428;DHT22;42331;53.578;9.760;2023-08-06T05:14:38;15.10;99.90
56428;DHT22;42331;53.578;9.760;2023-08-06T05:17:09;15.10;99.90
56428;DHT22;42331;53.578;9.760;2023-08-06T05:19:39;15.00;99.90
56428;DHT22;42331;53.578;9.760;2023-08-06T05:22:10;15.10;99.90
56428;DHT22;42331;53.578;9.760;2023-08-06T05:24:41;15.10;99.90
56428;DHT22;42331;53.578;9.760;2023-08-06T05:27:11;15.10;99.90
56428;DHT22;42331;53.578;9.760;2023-08-06T05:29:42;15.10;99.90
56428;DHT22;42331;53.578;9.760;2023-08-06T05:32:14;15.10;99.90
56428;DHT22;42331;53.578;9.760;2023-08-06T05:34:44;15.10;99.90
56428;DHT22;42331;53.578;9.760;2023-08-06T05:37:15;15.20;99.90
56428;DHT22;42331;53.578;9.760;2023-08-06T05:39:46;15.20;99.90
56428;DHT22;42331;53.578;9.760;2023-08-06T05:42:16;15.30;99.90
56428;DHT22;42331;53.578;9.760;2023-08-06T05:44:47;15.30;99.90
56428;DHT22;42331;53.578;9.760;2023-08-06T05:47:18;15.30;99.90
56428;DHT22;42331;53.578;9.760;2023-08-06T05:49:50;15.30;99.90
56428;DHT22;42331;53.578;9.760;2023-08-06T05:52:20;15.40;99.90
56428;DHT22;42331;53.578;9.760;2023-08-06T05:54:51;15.40;99.90
56428;DHT22;42331;53.578;9.760;2023-08-06T05:57:22;15.40;99.90
56428;DHT22;42331;53.578;9.760;2023-08-06T05:59:52;15.40;99.90
56428;DHT22;42331;53.578;9.760;2023-08-06T06:02:23;15.40;99.90
56428;DHT22;42331;53.578;9.760;2023-08-06T06:04:54;15.40;99.90
56428;DHT22;42331;53.578;9.760;2023-08-06T06:07:24;15.40;99.90
56428;DHT22;42331;53.578;9.760;2023-08-06T06:09:55;15.50;99.90
56428;DHT22;42331;53.578;9.760;2023-08-06T06:12:26;15.60;99.90
56428;DHT22;42331;53.578;9.760;2023-08-06T06:14:56;15.60;99.90
56428;DHT22;42331;53.578;9.760;2023-08-06T06:17:28;15.60;99.90
56428;DHT22;42331;53.578;9.760;2023-08-06T06:19:59;15.60;99.90
56428;DHT22;42331;53.578;9.760;2023-08-06T06:22:30;15.70;99.90
56428;DHT22;42331;53.578;9.760;2023-08-06T06:25:01;15.70;99.90
56428;DHT22;42331;53.578;9.760;2023-08-06T06:27:32;15.70;99.90
56428;DHT22;42331;53.578;9.760;2023-08-06T06:30:03;15.70;99.90
56428;DHT22;42331;53.578;9.760;2023-08-06T06:32:34;15.70;99.90
56428;DHT22;42331;53.578;9.760;2023-08-06T06:35:05;15.70;99.90
56428;DHT22;42331;53.578;9.760;2023-08-06T06:37:36;15.70;99.90
56428;DHT22;42331;53.578;9.760;2023-08-06T06:40:08;15.70;99.90
56428;DHT22;42331;53.578;9.760;2023-08-06T06:42:38;15.70;99.90
56428;DHT22;42331;53.578;9.760;2023-08-06T06:45:09;15.80;99.90
56428;DHT22;42331;53.578;9.760;2023-08-06T06:47:40;15.80;99.90
56428;DHT22;42331;53.578;9.760;2023-08-06T06:50:11;15.70;99.90
56428;DHT22;42331;53.578;9.760;2023-08-06T06:52:42;15.70;99.90
56428;DHT22;42331;53.578;9.760;2023-08-06T06:55:12;15.70;99.90
56428;DHT22;42331;53.578;9.760;2023-08-06T06:57:43;15.70;99.90
56428;DHT22;42331;53.578;9.760;2023-08-06T07:00:14;15.70;99.90
56428;DHT22;42331;53.578;9.760;2023-08-06T07:02:45;15.70;99.90
56428;DHT22;42331;53.578;9.760;2023-08-06T07:05:15;15.80;99.90
56428;DHT22;42331;53.578;9.760;2023-08-06T07:07:46;15.90;99.90
56428;DHT22;42331;53.578;9.760;2023-08-06T07:10:17;15.90;99.90
56428;DHT22;42331;53.578;9.760;2023-08-06T07:12:47;15.90;99.90
56428;DHT22;42331;53.578;9.760;2023-08-06T07:15:18;16.00;99.90
56428;DHT22;42331;53.578;9.760;2023-08-06T07:17:49;16.00;99.90
56428;DHT22;42331;53.578;9.760;2023-08-06T07:20:19;16.10;99.90
56428;DHT22;42331;53.578;9.760;2023-08-06T07:22:50;16.10;99.90
56428;DHT22;42331;53.578;9.760;2023-08-06T07:25:21;16.20;99.90
56428;DHT22;42331;53.578;9.760;2023-08-06T07:27:51;16.20;99.90
56428;DHT22;42331;53.578;9.760;2023-08-06T07:30:22;16.20;99.90
56428;DHT22;42331;53.578;9.760;2023-08-06T07:32:53;16.20;99.90
56428;DHT22;42331;53.578;9.760;2023-08-06T07:35:24;16.20;99.90
56428;DHT22;42331;53.578;9.760;2023-08-06T07:37:54;16.10;99.90
56428;DHT22;42331;53.578;9.760;2023-08-06T07:40:25;16.10;99.90
56428;DHT22;42331;53.578;9.760;2023-08-06T07:42:56;16.20;99.90
56428;DHT22;42331;53.578;9.760;2023-08-06T07:45:26;16.30;99.90
56428;DHT22;42331;53.578;9.760;2023-08-06T07:47:57;16.20;99.90
56428;DHT22;42331;53.578;9.760;2023-08-06T07:50:28;16.20;99.90
56428;DHT22;42331;53.578;9.760;2023-08-06T07:52:58;16.20;99.90
56428;DHT22;42331;53.578;9.760;2023-08-06T07:55:29;16.30;99.90
56428;DHT22;42331;53.578;9.760;2023-08-06T07:58:00;16.40;99.90
56428;DHT22;42331;53.578;9.760;2023-08-06T08:00:31;16.40;99.90
56428;DHT22;42331;53.578;9.760;2023-08-06T08:03:01;16.50;99.90
56428;DHT22;42331;53.578;9.760;2023-08-06T08:05:32;16.60;99.90
56428;DHT22;42331;53.578;9.760;2023-08-06T08:08:03;16.60;99.90
56428;DHT22;42331;53.578;9.760;2023-08-06T08:10:34;16.60;99.90
56428;DHT22;42331;53.578;9.760;2023-08-06T08:13:06;16.70;99.90
56428;DHT22;42331;53.578;9.760;2023-08-06T08:15:36;16.80;99.90
56428;DHT22;42331;53.578;9.760;2023-08-06T08:18:07;16.90;99.90
56428;DHT22;42331;53.578;9.760;2023-08-06T08:20:38;16.90;99.90
56428;DHT22;42331;53.578;9.760;2023-08-06T08:23:09;17.10;99.90
56428;DHT22;42331;53.578;9.760;2023-08-06T08:25:39;17.20;99.90
56428;DHT22;42331;53.578;9.760;2023-08-06T08:28:10;17.20;99.90
56428;DHT22;42331;53.578;9.760;2023-08-06T08:30:41;17.20;99.90
56428;DHT22;42331;53.578;9.760;2023-08-06T08:33:12;17.20;99.90
56428;DHT22;42331;53.578;9.760;2023-08-06T08:35:42;17.30;99.90
56428;DHT22;42331;53.578;9.760;2023-08-06T08:38:13;17.30;99.90
56428;DHT22;42331;53.578;9.760;2023-08-06T08:40:51;17.30;99.90
56428;DHT22;42331;53.578;9.760;2023-08-06T08:43:23;17.30;99.90
56428;DHT22;42331;53.578;9.760;2023-08-06T08:45:54;17.30;99.90
56428;DHT22;42331;53.578;9.760;2023-08-06T08:48:26;17.20;99.90
56428;DHT22;42331;53.578;9.760;2023-08-06T08:50:58;17.20;99.90
56428;DHT22;42331;53.578;9.760;2023-08-06T08:53:29;17.10;99.90
56428;DHT22;42331;53.578;9.760;2023-08-06T08:56:01;17.10;99.90
56428;DHT22;42331;53.578;9.760;2023-08-06T08:58:32;17.10;99.90
56428;DHT22;42331;53.578;9.760;2023-08-06T09:01:07;17.00;99.90
56428;DHT22;42331;53.578;9.760;2023-08-06T09:03:37;17.00;99.90
56428;DHT22;42331;53.578;9.760;2023-08-06T09:06:11;17.10;99.90
56428;DHT22;42331;53.578;9.760;2023-08-06T09:08:51;17.20;99.90
56428;DHT22;42331;53.578;9.760;2023-08-06T09:11:23;17.30;99.90
56428;DHT22;42331;53.578;9.760;2023-08-06T09:13:55;17.40;99.90
56428;DHT22;42331;53.578;9.760;2023-08-06T09:16:26;17.50;99.90
56428;DHT22;42331;53.578;9.760;2023-08-06T09:19:07;17.50;99.90
56428;DHT22;42331;53.578;9.760;2023-08-06T09:21:39;17.60;99.90
56428;DHT22;42331;53.578;9.760;2023-08-06T09:24:10;17.80;99.90
56428;DHT22;42331;53.578;9.760;2023-08-06T09:26:43;17.60;99.90
56428;DHT22;42331;53.578;9.760;2023-08-06T09:29:14;17.60;99.90
56428;DHT22;42331;53.578;9.760;2023-08-06T09:31:49;17.70;99.90
56428;DHT22;42331;53.578;9.760;2023-08-06T09:34:22;17.70;99.90
56428;DHT22;42331;53.578;9.760;2023-08-06T09:36:54;17.80;99.90
56428;DHT22;42331;53.578;9.760;2023-08-06T09:39:29;18.00;99.90
56428;DHT22;42331;53.578;9.760;2023-08-06T09:42:01;17.90;99.90
56428;DHT22;42331;53.578;9.760;2023-08-06T09:44:33;17.90;99.90
56428;DHT22;42331;53.578;9.760;2023-08-06T09:47:04;17.90;99.90
56428;DHT22;42331;53.578;9.760;2023-08-06T09:52:06;17.90;99.90
56428;DHT22;42331;53.578;9.760;2023-08-06T09:54:38;17.90;99.90
56428;DHT22;42331;53.578;9.760;2023-08-06T09:57:11;18.00;99.90
56428;DHT22;42331;53.578;9.760;2023-08-06T09:59:42;18.10;99.90
56428;DHT22;42331;53.578;9.760;2023-08-06T10:02:13;17.90;99.90
56428;DHT22;42331;53.578;9.760;2023-08-06T10:04:44;17.90;99.90
56428;DHT22;42331;53.578;9.760;2023-08-06T10:07:16;17.90;99.90
56428;DHT22;42331;53.578;9.760;2023-08-06T10:09:49;17.90;99.90
56428;DHT22;42331;53.578;9.760;2023-08-06T10:12:20;17.90;99.90
56428;DHT22;42331;53.578;9.760;2023-08-06T10:14:54;17.90;99.90
56428;DHT22;42331;53.578;9.760;2023-08-06T10:17:26;18.10;99.90
56428;DHT22;42331;53.578;9.760;2023-08-06T10:19:58;18.20;99.90
56428;DHT22;42331;53.578;9.760;2023-08-06T10:22:33;18.30;99.90
56428;DHT22;42331;53.578;9.760;2023-08-06T10:25:04;18.40;99.90
56428;DHT22;42331;53.578;9.760;2023-08-06T10:30:30;18.40;99.90
56428;DHT22;42331;53.578;9.760;2023-08-06T10:33:03;18.30;99.90
56428;DHT22;42331;53.578;9.760;2023-08-06T10:35:45;18.20;99.90
56428;DHT22;42331;53.578;9.760;2023-08-06T10:38:25;18.10;99.90
56428;DHT22;42331;53.578;9.760;2023-08-06T10:43:31;18.10;99.90
56428;DHT22;42331;53.578;9.760;2023-08-06T10:46:03;18.20;99.90
56428;DHT22;42331;53.578;9.760;2023-08-06T10:48:41;18.20;99.90
56428;DHT22;42331;53.578;9.760;2023-08-06T10:51:13;18.00;99.90
56428;DHT22;42331;53.578;9.760;2023-08-06T10:53:49;18.10;99.90
56428;DHT22;42331;53.578;9.760;2023-08-06T10:56:22;18.10;99.90
56428;DHT22;42331;53.578;9.760;2023-08-06T10:58:56;18.20;99.90
56428;DHT22;42331;53.578;9.760;2023-08-06T11:01:28;18.10;99.90
56428;DHT22;42331;53.578;9.760;2023-08-06T11:04:02;18.10;99.90
56428;DHT22;42331;53.578;9.760;2023-08-06T11:06:33;18.20;99.90
56428;DHT22;42331;53.578;9.760;2023-08-06T11:09:04;18.30;99.90
56428;DHT22;42331;53.578;9.760;2023-08-06T11:11:34;18.30;99.90
56428;DHT22;42331;53.578;9.760;2023-08-06T11:14:05;18.40;99.90
56428;DHT22;42331;53.578;9.760;2023-08-06T11:16:36;18.50;99.90
56428;DHT22;42331;53.578;9.760;2023-08-06T11:19:08;18.60;99.90
56428;DHT22;42331;53.578;9.760;2023-08-06T11:21:39;18.60;99.90
56428;DHT22;42331;53.578;9.760;2023-08-06T11:24:10;18.70;99.90
56428;DHT22;42331;53.578;9.760;2023-08-06T11:26:41;18.60;99.90
56428;DHT22;42331;53.578;9.760;2023-08-06T11:29:15;18.60;99.90
56428;DHT22;42331;53.578;9.760;2023-08-06T11:31:46;18.70;99.90
56428;DHT22;42331;53.578;9.760;2023-08-06T11:34:17;18.70;99.90
56428;DHT22;42331;53.578;9.760;2023-08-06T11:36:48;18.80;99.90
56428;DHT22;42331;53.578;9.760;2023-08-06T11:39:18;18.80;99.90
56428;DHT22;42331;53.578;9.760;2023-08-06T11:41:49;18.80;99.90
56428;DHT22;42331;53.578;9.760;2023-08-06T11:44:22;18.80;99.90
56428;DHT22;42331;53.578;9.760;2023-08-06T11:46:54;18.80;99.90
56428;DHT22;42331;53.578;9.760;2023-08-06T11:49:48;18.80;99.90
56428;DHT22;42331;53.578;9.760;2023-08-06T11:52:20;18.70;99.90
56428;DHT22;42331;53.578;9.760;2023-08-06T11:57:34;18.80;99.90
56428;DHT22;42331;53.578;9.760;2023-08-06T12:00:13;18.90;99.90
56428;DHT22;42331;53.578;9.760;2023-08-06T12:02:45;18.80;99.90
56428;DHT22;42331;53.578;9.760;2023-08-06T12:05:18;18.60;99.90
56428;DHT22;42331;53.578;9.760;2023-08-06T12:07:51;18.50;99.90
56428;DHT22;42331;53.578;9.760;2023-08-06T12:10:24;18.60;99.90
56428;DHT22;42331;53.578;9.760;2023-08-06T12:12:55;18.70;99.90
56428;DHT22;42331;53.578;9.760;2023-08-06T12:15:26;18.60;99.90
56428;DHT22;42331;53.578;9.760;2023-08-06T12:17:57;18.60;99.90
56428;DHT22;42331;53.578;9.760;2023-08-06T12:20:28;18.50;99.90
56428;DHT22;42331;53.578;9.760;2023-08-06T12:22:58;18.60;99.90
56428;DHT22;42331;53.578;9.760;2023-08-06T12:25:29;18.60;99.90
56428;DHT22;42331;53.578;9.760;2023-08-06T12:28:01;18.50;99.90
56428;DHT22;42331;53.578;9.760;2023-08-06T12:30:32;18.50;99.90
56428;DHT22;42331;53.578;9.760;2023-08-06T12:33:05;18.60;99.90
56428;DHT22;42331;53.578;9.760;2023-08-06T12:35:36;18.50;99.90
56428;DHT22;42331;53.578;9.760;2023-08-06T12:38:08;18.40;99.90
56428;DHT22;42331;53.578;9.760;2023-08-06T12:40:39;18.40;99.90
56428;DHT22;42331;53.578;9.760;2023-08-06T12:43:11;18.40;99.90
56428;DHT22;42331;53.578;9.760;2023-08-06T12:45:42;18.40;99.90
56428;DHT22;42331;53.578;9.760;2023-08-06T12:48:13;18.50;99.90
56428;DHT22;42331;53.578;9.760;2023-08-06T12:50:44;18.50;99.90
56428;DHT22;42331;53.578;9.760;2023-08-06T12:53:15;18.40;99.90
56428;DHT22;42331;53.578;9.760;2023-08-06T12:55:48;18.40;99.90
56428;DHT22;42331;53.578;9.760;2023-08-06T12:58:19;18.40;99.90
56428;DHT22;42331;53.578;9.760;2023-08-06T13:00:49;18.50;99.90
56428;DHT22;42331;53.578;9.760;2023-08-06T13:03:20;18.50;99.90
56428;DHT22;42331;53.578;9.760;2023-08-06T13:05:50;18.60;99.90
56428;DHT22;42331;53.578;9.760;2023-08-06T13:08:21;18.70;99.90
56428;DHT22;42331;53.578;9.760;2023-08-06T13:10:52;18.80;99.90
56428;DHT22;42331;53.578;9.760;2023-08-06T13:13:23;18.90;99.90
56428;DHT22;42331;53.578;9.760;2023-08-06T13:15:56;19.00;99.90
56428;DHT22;42331;53.578;9.760;2023-08-06T13:18:27;19.00;99.90
56428;DHT22;42331;53.578;9.760;2023-08-06T13:20:59;19.00;99.90
56428;DHT22;42331;53.578;9.760;2023-08-06T13:23:31;19.20;99.90
56428;DHT22;42331;53.578;9.760;2023-08-06T13:26:01;19.00;99.90
56428;DHT22;42331;53.578;9.760;2023-08-06T13:28:32;19.00;99.90
56428;DHT22;42331;53.578;9.760;2023-08-06T13:31:03;19.00;99.90
56428;DHT22;42331;53.578;9.760;2023-08-06T13:33:34;19.00;99.90
56428;DHT22;42331;53.578;9.760;2023-08-06T13:36:10;19.00;99.90
56428;DHT22;42331;53.578;9.760;2023-08-06T13:38:43;18.90;99.90
56428;DHT22;42331;53.578;9.760;2023-08-06T13:41:16;18.90;99.90
56428;DHT22;42331;53.578;9.760;2023-08-06T13:44:00;18.90;99.90
56428;DHT22;42331;53.578;9.760;2023-08-06T13:46:37;18.90;99.90
56428;DHT22;42331;53.578;9.760;2023-08-06T13:49:08;18.80;99.90
56428;DHT22;42331;53.578;9.760;2023-08-06T13:51:38;18.70;99.90
56428;DHT22;42331;53.578;9.760;2023-08-06T13:54:09;18.60;99.90
56428;DHT22;42331;53.578;9.760;2023-08-06T13:56:40;18.60;99.90
56428;DHT22;42331;53.578;9.760;2023-08-06T13:59:11;18.40;99.90
56428;DHT22;42331;53.578;9.760;2023-08-06T14:01:43;18.20;99.90
56428;DHT22;42331;53.578;9.760;2023-08-06T14:04:14;18.10;99.90
56428;DHT22;42331;53.578;9.760;2023-08-06T14:06:45;18.00;99.90
56428;DHT22;42331;53.578;9.760;2023-08-06T14:09:16;17.90;99.90
56428;DHT22;42331;53.578;9.760;2023-08-06T14:11:49;17.90;99.90
56428;DHT22;42331;53.578;9.760;2023-08-06T14:14:19;17.80;99.90
56428;DHT22;42331;53.578;9.760;2023-08-06T14:16:56;17.80;99.90
56428;DHT22;42331;53.578;9.760;2023-08-06T14:19:27;17.60;99.90
56428;DHT22;42331;53.578;9.760;2023-08-06T14:21:58;17.60;99.90
56428;DHT22;42331;53.578;9.760;2023-08-06T14:24:28;17.50;99.90
56428;DHT22;42331;53.578;9.760;2023-08-06T14:26:59;17.50;99.90
56428;DHT22;42331;53.578;9.760;2023-08-06T14:29:30;17.40;99.90
56428;DHT22;42331;53.578;9.760;2023-08-06T14:32:00;17.50;99.90
56428;DHT22;42331;53.578;9.760;2023-08-06T14:34:31;17.40;99.90
56428;DHT22;42331;53.578;9.760;2023-08-06T14:37:02;17.30;99.90
56428;DHT22;42331;53.578;9.760;2023-08-06T14:39:33;17.20;99.90
56428;DHT22;42331;53.578;9.760;2023-08-06T14:42:05;17.20;99.90
56428;DHT22;42331;53.578;9.760;2023-08-06T14:44:35;17.20;99.90
56428;DHT22;42331;53.578;9.760;2023-08-06T14:47:06;17.20;99.90
56428;DHT22;42331;53.578;9.760;2023-08-06T14:49:38;17.20;99.90
56428;DHT22;42331;53.578;9.760;2023-08-06T14:52:08;17.20;99.90
56428;DHT22;42331;53.578;9.760;2023-08-06T14:54:39;17.30;99.90
56428;DHT22;42331;53.578;9.760;2023-08-06T14:57:11;17.20;99.90
56428;DHT22;42331;53.578;9.760;2023-08-06T14:59:43;17.20;99.90
56428;DHT22;42331;53.578;9.760;2023-08-06T15:02:13;17.10;99.90
56428;DHT22;42331;53.578;9.760;2023-08-06T15:04:44;17.20;99.90
56428;DHT22;42331;53.578;9.760;2023-08-06T15:07:15;17.20;99.90
56428;DHT22;42331;53.578;9.760;2023-08-06T15:09:45;17.20;99.90
56428;DHT22;42331;53.578;9.760;2023-08-06T15:12:16;17.20;99.90
56428;DHT22;42331;53.578;9.760;2023-08-06T15:14:47;17.30;99.90
56428;DHT22;42331;53.578;9.760;2023-08-06T15:17:18;17.20;99.90
56428;DHT22;42331;53.578;9.760;2023-08-06T15:19:49;17.20;99.90
56428;DHT22;42331;53.578;9.760;2023-08-06T15:22:20;17.30;99.90
56428;DHT22;42331;53.578;9.760;2023-08-06T15:24:50;17.30;99.90
56428;DHT22;42331;53.578;9.760;2023-08-06T15:27:21;17.40;99.90
56428;DHT22;42331;53.578;9.760;2023-08-06T15:29:52;17.40;99.90
56428;DHT22;42331;53.578;9.760;2023-08-06T15:32:23;17.50;99.90
56428;DHT22;42331;53.578;9.760;2023-08-06T15:34:54;17.50;99.90
56428;DHT22;42331;53.578;9.760;2023-08-06T15:37:26;17.60;99.90
56428;DHT22;42331;53.578;9.760;2023-08-06T15:39:57;17.60;99.90
56428;DHT22;42331;53.578;9.760;2023-08-06T15:42:28;17.70;99.90
56428;DHT22;42331;53.578;9.760;2023-08-06T15:45:02;17.80;99.90
56428;DHT22;42331;53.578;9.760;2023-08-06T15:47:33;17.70;99.90
56428;DHT22;42331;53.578;9.760;2023-08-06T15:50:10;17.80;99.90
56428;DHT22;42331;53.578;9.760;2023-08-06T15:52:41;17.90;99.90
56428;DHT22;42331;53.578;9.760;2023-08-06T15:55:11;17.90;99.90
56428;DHT22;42331;53.578;9.760;2023-08-06T15:57:43;17.90;99.90
56428;DHT22;42331;53.578;9.760;2023-08-06T16:00:14;17.80;99.90
56428;DHT22;42331;53.578;9.760;2023-08-06T16:02:44;17.80;99.90
56428;DHT22;42331;53.578;9.760;2023-08-06T16:05:16;17.80;99.90
56428;DHT22;42331;53.578;9.760;2023-08-06T16:07:49;17.80;99.90
56428;DHT22;42331;53.578;9.760;2023-08-06T16:10:21;17.80;99.90